Eduardo Lozano

Scout - Tigres
4 Apr 2027
Sonntag
Verarbeitung

Persönlichkeit

Anpassungsfähigkeit (2) Ehrgeiz (5) Kontroverse (10) Loyalität (9) Druck (14) Professionalität (10) Fairness (19) Temperament (16)

Profil

Trainerstil Demokratisch
Lizenz Nationale A
Entschlossenheit 12
Menschenführung 14
Motivation 15
Disziplin 7
Arbeitszufriedenheit
76%
Ermüdung
0%
Rolle Scout
Gehalt 103.7K p/W
Vertrag 14.03.2028

Leistung

Verhalten Gut
Trainingseffektivität
30%
Spielerentwicklung
65%
Verletzungsprävention
60%
Taktische Umsetzung
55%

Letzte Ereignisse

Nahm an einer Scouting-Besprechung teil jetzt
Nahm an einer Scouting-Besprechung teil 7T her
Spieler begutachtet 7T her
Nahm an einer Scouting-Besprechung teil 14T her
Spieler begutachtet 14T her
Spieler begutachtet 14T her
Spieler begutachtet 21T her
Spieler begutachtet 21T her

Aktuell beobachtet

71
Spieler Verein Status Fähigkeit Vertrauen Beobachtet Zuletzt beobachtet Letzte Stimme
Camilo Durán Bloemfontein Celtic Aktiv 120 / 120 40% 4 01.04.2027 -
Welington Southampton Aktiv 130 / 126 40% 1 01.04.2027 -
Ali Ahmed Norwich City Aktiv 127 / 131 40% 1 01.04.2027 -
Efraín Álvarez Guadalajara Aktiv 131 / 140 40% 4 30.03.2027 -
Enzo Loiodice Olympique Lyonnais Aktiv 130 / 131 40% 1 30.03.2027 -
Manu Pozo Torreense Aktiv 119 / 116 40% 1 30.03.2027 -
Ernest Nuamah Olympique Lyonnais Aktiv 134 / 136 40% 2 23.03.2027 -
Brian Rodríguez Club America Aktiv 135 / 121 40% 1 23.03.2027 -
Noah Sadiki Sunderland Aktiv 143 / 149 40% 1 23.03.2027 -
Jack Diamond Stockport County Aktiv 118 / 125 40% 1 18.03.2027 -
Harry Clarke Preston Aktiv 129 / 134 40% 1 18.03.2027 -
Chiquinho Alverca Aktiv 129 / 126 40% 1 18.03.2027 -
Facundo Torres Shakhtar Aktiv 143 / 124 40% 2 17.03.2027 -
Marquinhos Spartak Moscow Aktiv 139 / 138 40% 1 17.03.2027 -
Akinkunmi Amoo Ismaily Aktiv 123 / 112 40% 2 14.03.2027 -
Iker Benito Queretaro Aktiv 126 / 122 40% 2 14.03.2027 -
César Huerta Pumas UNAM Aktiv 127 / 118 40% 2 14.03.2027 -
Daniel Kyerewaa Reading Aktiv 118 / 106 40% 1 11.03.2027 -
Juan Bezerra Zamalek Aktiv 117 / 127 40% 1 09.03.2027 -
Haissem Hassan Bloemfontein Celtic Aktiv 134 / 144 40% 1 09.03.2027 -
Itumeleng Tau Ajax Cape Town Aktiv 119 / 125 40% 3 08.03.2027 -
Ibrahim Tarek Masr El Makasa Aktiv 123 / 119 40% 1 08.03.2027 -
Erick Ngcobo Black Aces Aktiv 104 / 96 40% 1 08.03.2027 -
Brian Figueroa Morelia Aktiv 110 / 113 40% 1 05.03.2027 -
Nahuel Ulariaga Al Ahli Aktiv 115 / 115 40% 3 01.03.2027 -
Relebohile Mofokeng Orlando Pirates Aktiv 119 / 134 40% 1 01.03.2027 -
Ronald Swansea City Aktiv 125 / 133 40% 1 01.03.2027 -
Alexis Vega Toluca Abgelehnt 144 / 139 79% 1 11.01.2027 Ablehnen
Jalen Blesa Rio Ave Aktiv 122 / 123 40% 2 31.12.2026 -
Alejandro Piedrahita Deportivo Pereira Aktiv 129 / 117 40% 2 21.12.2026 -
Santiago Mina VfL Wolfsburg Aktiv 139 / 150 40% 1 21.12.2026 -
Nicolò Tresoldi Club Brugge Aktiv 133 / 125 40% 1 20.12.2026 -
Brayan León Mamelodi Sundowns Aktiv 119 / 111 40% 1 20.12.2026 -
Jerónimo Porto Lapegüe Slask Verhandlung 104 / 111 40% 1 20.12.2026 -
José Barreto Fehervar Aktiv 108 / 96 40% 2 18.12.2026 -
Alan Velasco Boca Juniors Aktiv 134 / 138 40% 1 18.12.2026 -
Cesar Corona Veracruz Aktiv 135 / 138 40% 2 15.12.2026 -
Yousef Salech Cardiff City Aktiv 128 / 132 40% 1 15.12.2026 -
Felipe Fernández Vorskla Aktiv 97 / 117 40% 1 09.12.2026 -
Mohamed-Ali Cho Hull City Aktiv 134 / 137 40% 1 09.12.2026 -
Tom Cannon Sheffield United Aktiv 130 / 123 40% 1 07.12.2026 Mehr Infos nötig
Stav Toriel Hapoel Tel Aviv Aktiv 123 / 124 40% 1 07.12.2026 -
Exequiel Zeballos Boca Juniors Aktiv 134 / 135 40% 2 03.12.2026 -
Ramiro Ruiz Rodríguez Atlético Tucumán Aktiv 120 / 120 40% 2 01.12.2026 -
Luciano Gondou CSKA Moscow Aktiv 127 / 132 40% 1 01.12.2026 -
Alexis Cuello San Lorenzo Aktiv 121 / 127 40% 3 18.11.2026 -
Afimico Pululu Al-Hazem Aktiv 131 / 141 40% 1 18.11.2026 -
Jefry Zapata Once Caldas Aktiv 118 / 116 40% 1 07.11.2026 -
Juan Rocca Gimnasia y Tiro Aktiv 104 / 107 40% 1 28.10.2026 -
Ignacio Russo Tigre Aktiv 127 / 129 40% 1 26.10.2026 -
Agustín Hausch Defensa y Justicia Aktiv 122 / 117 40% 1 26.10.2026 -
Thiago Calone All Boys Aktiv 111 / 103 40% 2 23.10.2026 -
Mauro Valiente Estudiantes Aktiv 112 / 102 40% 1 23.10.2026 -
Alexander Díaz Deportivo Riestra Aktiv 123 / 105 40% 1 18.10.2026 -
Mauro Méndez Tigre Aktiv 116 / 106 40% 1 18.10.2026 -
Jesus Ferreira Seattle Sounders Aktiv 126 / 139 40% 1 16.10.2026 -
Justo Giani Universidad Catolica Aktiv 119 / 125 40% 1 16.10.2026 -
Ruyery Blanco Alianza Petrolera Aktiv 108 / 102 40% 1 08.10.2026 -
Marco Miori Alvarado Aktiv 111 / 98 40% 1 08.10.2026 -
Misael Sosa Godoy Cruz Aktiv 111 / 120 40% 1 30.09.2026 -
Luca Martínez Dupuy Godoy Cruz Aktiv 120 / 109 40% 1 30.09.2026 -
Diego Valencia Gornik Leczna Aktiv 116 / 97 40% 1 23.09.2026 -
Cheikh Sabaly Vancouver Whitecaps Aktiv 127 / 135 40% 1 23.09.2026 -
Luca Orellano Monterrey Aktiv 131 / 126 40% 1 23.09.2026 -
Percy Erasmus SuperSport United Aktiv 130 / 130 40% 1 18.09.2026 -
Clemente Montes Universidad Catolica Aktiv 116 / 117 40% 1 09.09.2026 -
Ayoub Jabbari FC Cincinnati Aktiv 111 / 110 40% 1 09.09.2026 -
Johar Mejía Rapid Wien Aktiv 105 / 103 40% 1 09.09.2026 -
Antonio Blanco Alavés Aktiv 141 / 147 40% 1 01.08.2026 -
David Affengruber Elche Aktiv 133 / 137 40% 1 01.08.2026 -
Omar El Hilali Espanyol Aktiv 142 / 135 40% 1 01.08.2026 -